EGPH/EDI METAR and TAF weather

Enter ICAO airport designator
Station Type Date Time Source
EGPH METAR 2021/03/01 09:50 UTC NOAA

EGPH 010950Z VRB01KT CAVOK 06/03 Q1034


Station Type Date Time Source
EGPH Decoded METAR 2021/03/01 09:50 UTC NOAA

Edinburgh Airport, United Kingdom (EGPH) 55-57N 003-21W 0M
Mar 01, 2021 - 04:50 AM EST / 2021.03.01 0950 UTC
Wind: Variable at 1 MPH (1 KT):0
Visibility: greater than 7 mile(s):0
Temperature: 42 F (6 C)
Dew Point: 37 F (3 C)
Relative Humidity: 81%
Pressure (altimeter): 30.53 in. Hg (1034 hPa)
ob: EGPH 010950Z VRB01KT CAVOK 06/03 Q1034
cycle: 10

Station Type Date Time Source
EGPH TAF 2021/03/01 06:09 UTC NOAA

TAF EGPH 010455Z 0106/0206 25004KT 9999 SCT040
TEMPO 0106/0110 5000 BR PROB30 0106/0109 0300 FG FZFG VV///
BECMG 0112/0115 07010KT
BECMG 0117/0120 6000 BKN003
TEMPO 0117/0206 3000 BR PROB40
TEMPO 0118/0206 0300 FG OVC001

Example: see airport list